Flight Track Log - Related Links

Times and Time Zones

All times are in EDT time to prevent confusion due to time zone crossing. See the N3072D flight status page for this flight to view local times or setup timezone preferences in your user account.

Time Position Orientation Groundspeed Altitude Reporting Facility
EDT Latitude Longitude Course Direction KTS MPH feet Rate Location/Type
Sat 01:11:53 PM 37.9247 -92.4967 38° Northeast 78 90 5,100  Level Kansas City Center
Sat 01:12:55 PM 37.9456 -92.4700 45° Northeast 100 115 5,100 -97 Level Kansas City Center
Sat 01:13:57 PM 37.9644 -92.4281 60° Northeast 108 124 4,900  Descending Kansas City Center
Sat 01:14:59 PM 37.9817 -92.3953 56° Northeast 111 128 5,100 97 Climbing Kansas City Center
Sat 01:16:01 PM 37.9989 -92.3639 55° Northeast 108 124 5,100  Level Kansas City Center
Sat 01:17:00 PM 37.7510 -92.5824 38° Northeast  Level FlightAware Approximate
Sat 01:17:03 PM 38.0142 -92.3314 59° Northeast 107 123 5,100  Level Kansas City Center
Sat 01:18:05 PM 38.0347 -92.3022 48° Northeast 108 124 5,200  Climbing Kansas City Center
Sat 01:19:07 PM 38.0533 -92.2717 52° Northeast 109 125 5,100 -48 Descending Kansas City Center
Sat 01:20:09 PM 38.0728 -92.2400 52° Northeast 111 128 5,100 -48 Level Kansas City Center
Sat 01:21:11 PM 38.0906 -92.2078 55° Northeast 112 129 5,000  Descending Kansas City Center
Sat 01:22:13 PM 38.1072 -92.1769 56° Northeast 109 125 5,100 48 Climbing Kansas City Center
Sat 01:23:15 PM 38.1261 -92.1464 52° Northeast 108 124 5,100  Level Kansas City Center
Sat 01:24:17 PM 38.1506 -92.1094 50° Northeast 111 128 5,100  Level Kansas City Center
Sat 01:25:19 PM 38.1697 -92.0819 48° Northeast 106 122 5,100 -48 Level Kansas City Center
Sat 01:26:21 PM 38.1922 -92.0578 40° Northeast 105 121 5,000  Descending Kansas City Center
Sat 01:27:23 PM 38.2136 -92.0367 38° Northeast 99 114 5,100 48 Climbing Kansas City Center
Sat 01:28:25 PM 38.2364 -92.0133 39° Northeast 102 117 5,100  Level Kansas City Center
Sat 01:29:26 PM 38.2611 -91.9956 29° Northeast 102 117 5,100 -49 Level Kansas City Center
Sat 01:30:28 PM 38.2869 -91.9869 15° North 98 113 5,000  Descending Kansas City Center
Sat 01:31:30 PM 38.3194 -91.9742 17° North 100 115 5,100 48 Climbing Kansas City Center
Sat 01:32:32 PM 38.3464 -91.9625 19° North 101 116 5,100  Level Kansas City Center
Sat 01:33:34 PM 38.3717 -91.9497 22° Northeast 99 114 5,100 -242 Level Kansas City Center
Sat 01:34:36 PM 38.3989 -91.9428 11° North 98 113 4,600 -581 Descending Kansas City Center
Sat 01:35:38 PM 38.4272 -91.9386 North 100 115 3,900 -726 Descending Kansas City Center
Sat 01:36:40 PM 38.4572 -91.9319 10° North 106 122 3,100 -435 Descending Kansas City Center
Sat 01:37:42 PM 38.4811 -91.9344 355° North 106 122 3,000 -339 Descending Kansas City Center
Sat 01:38:44 PM 38.4997 -91.9644 308° West 95 109 2,400 -484 Descending Kansas City Center
Sat 01:39:46 PM 38.5094 -91.9906 295° West 87 100 2,000 -145 Descending Kansas City Center
Sat 01:40:48 PM 38.5222 -92.0150 304° West 85 98 2,100 48 Climbing Kansas City Center
Sat 01:41:50 PM 38.5322 -92.0378 299° West 80 92 2,100 -48 Level Kansas City Center
Sat 01:42:52 PM 38.5417 -92.0578 301° West 74 85 2,000 -97 Descending Kansas City Center
Sat 01:43:54 PM 38.5528 -92.0772 306° West 70 81 1,900 -435 Descending Kansas City Center
Sat 01:44:56 PM 38.5644 -92.1014 302° West 68 78 1,100 -484 Descending Kansas City Center
Sat 01:45:58 PM 38.5725 -92.1192 300° West 69 79 900 -97 Descending Kansas City Center
Sat 01:47:00 PM 38.5842 -92.1403 305° West 69 79 900  Level Kansas City Center
Sat 01:48:00 PM 38.5833 -92.1500 303° West  Level FlightAware Approximate
Sat 01:55:00 PM 38.5912 -92.1561 303° West  Level Estimated
Sat 01:56:00 PM 38.5912 -92.1561 303° West  Level Estimated
Sat 01:57:00 PM 38.5912 -92.1561 303° West  Level Estimated

Login

Don't have an account? Register now (free) for customized features, flight alerts, and more!